sensor_id;sensor_type;location;lat;lon;timestamp;P1;durP1;ratioP1;P2;durP2;ratioP2
15669;SDS011;18524;45.190;5.732;2022-07-29T00:02:23;3.50;;;3.00;;
15669;SDS011;18524;45.190;5.732;2022-07-29T00:07:13;4.60;;;3.20;;
15669;SDS011;18524;45.190;5.732;2022-07-29T00:12:03;3.50;;;3.20;;
15669;SDS011;18524;45.190;5.732;2022-07-29T00:16:54;2.70;;;2.50;;
15669;SDS011;18524;45.190;5.732;2022-07-29T00:21:45;3.90;;;3.10;;
15669;SDS011;18524;45.190;5.732;2022-07-29T00:26:35;3.70;;;2.90;;
15669;SDS011;18524;45.190;5.732;2022-07-29T00:31:25;3.50;;;3.20;;
15669;SDS011;18524;45.190;5.732;2022-07-29T00:36:16;3.97;;;3.67;;
15669;SDS011;18524;45.190;5.732;2022-07-29T00:41:06;4.33;;;3.20;;
15669;SDS011;18524;45.190;5.732;2022-07-29T00:45:57;4.30;;;3.93;;
15669;SDS011;18524;45.190;5.732;2022-07-29T00:50:47;4.20;;;3.73;;
15669;SDS011;18524;45.190;5.732;2022-07-29T00:55:39;4.37;;;3.40;;
15669;SDS011;18524;45.190;5.732;2022-07-29T01:00:29;3.50;;;3.20;;
15669;SDS011;18524;45.190;5.732;2022-07-29T01:05:21;3.67;;;3.30;;
15669;SDS011;18524;45.190;5.732;2022-07-29T01:10:13;3.90;;;3.60;;
15669;SDS011;18524;45.190;5.732;2022-07-29T01:15:05;6.27;;;3.73;;
15669;SDS011;18524;45.190;5.732;2022-07-29T01:30:09;3.30;;;3.10;;
15669;SDS011;18524;45.190;5.732;2022-07-29T01:40:14;3.80;;;3.50;;
15669;SDS011;18524;45.190;5.732;2022-07-29T01:45:23;4.67;;;3.10;;
15669;SDS011;18524;45.190;5.732;2022-07-29T01:50:19;3.63;;;3.30;;
15669;SDS011;18524;45.190;5.732;2022-07-29T01:55:13;3.70;;;3.37;;
15669;SDS011;18524;45.190;5.732;2022-07-29T02:00:06;3.63;;;3.00;;
15669;SDS011;18524;45.190;5.732;2022-07-29T02:04:57;4.37;;;3.63;;
15669;SDS011;18524;45.190;5.732;2022-07-29T02:09:50;3.50;;;3.30;;
15669;SDS011;18524;45.190;5.732;2022-07-29T02:14:43;3.40;;;3.00;;
15669;SDS011;18524;45.190;5.732;2022-07-29T02:19:37;4.13;;;3.47;;
15669;SDS011;18524;45.190;5.732;2022-07-29T02:24:29;4.73;;;3.17;;
15669;SDS011;18524;45.190;5.732;2022-07-29T02:29:21;3.73;;;3.43;;
15669;SDS011;18524;45.190;5.732;2022-07-29T02:34:14;3.80;;;3.37;;
15669;SDS011;18524;45.190;5.732;2022-07-29T02:39:07;3.30;;;2.87;;
15669;SDS011;18524;45.190;5.732;2022-07-29T02:44:02;3.13;;;2.90;;
15669;SDS011;18524;45.190;5.732;2022-07-29T02:49:02;3.60;;;3.30;;
15669;SDS011;18524;45.190;5.732;2022-07-29T02:54:06;3.30;;;3.03;;
15669;SDS011;18524;45.190;5.732;2022-07-29T02:58:59;3.60;;;3.30;;
15669;SDS011;18524;45.190;5.732;2022-07-29T03:03:53;3.77;;;3.43;;
15669;SDS011;18524;45.190;5.732;2022-07-29T03:08:44;4.40;;;3.73;;
15669;SDS011;18524;45.190;5.732;2022-07-29T03:13:35;4.27;;;3.40;;
15669;SDS011;18524;45.190;5.732;2022-07-29T03:18:26;4.40;;;3.67;;
15669;SDS011;18524;45.190;5.732;2022-07-29T03:23:20;3.87;;;3.17;;
15669;SDS011;18524;45.190;5.732;2022-07-29T03:28:12;3.47;;;3.17;;
15669;SDS011;18524;45.190;5.732;2022-07-29T03:33:03;3.53;;;3.10;;
15669;SDS011;18524;45.190;5.732;2022-07-29T03:37:54;3.37;;;3.07;;
15669;SDS011;18524;45.190;5.732;2022-07-29T03:42:44;5.07;;;4.50;;
15669;SDS011;18524;45.190;5.732;2022-07-29T03:47:37;5.20;;;4.10;;
15669;SDS011;18524;45.190;5.732;2022-07-29T03:52:32;3.87;;;3.50;;
15669;SDS011;18524;45.190;5.732;2022-07-29T03:57:24;3.50;;;3.30;;
15669;SDS011;18524;45.190;5.732;2022-07-29T04:02:18;4.47;;;3.43;;
15669;SDS011;18524;45.190;5.732;2022-07-29T04:07:13;3.23;;;3.03;;
15669;SDS011;18524;45.190;5.732;2022-07-29T04:12:04;7.43;;;5.90;;
15669;SDS011;18524;45.190;5.732;2022-07-29T04:16:55;6.27;;;5.67;;
15669;SDS011;18524;45.190;5.732;2022-07-29T04:21:45;5.27;;;4.77;;
15669;SDS011;18524;45.190;5.732;2022-07-29T04:26:35;5.17;;;4.67;;
15669;SDS011;18524;45.190;5.732;2022-07-29T04:31:26;4.70;;;4.30;;
15669;SDS011;18524;45.190;5.732;2022-07-29T04:36:16;4.43;;;4.03;;
15669;SDS011;18524;45.190;5.732;2022-07-29T04:41:07;4.00;;;3.70;;
15669;SDS011;18524;45.190;5.732;2022-07-29T04:45:58;3.77;;;3.47;;
15669;SDS011;18524;45.190;5.732;2022-07-29T04:50:48;4.40;;;4.00;;
15669;SDS011;18524;45.190;5.732;2022-07-29T04:55:39;4.57;;;3.80;;
15669;SDS011;18524;45.190;5.732;2022-07-29T05:00:29;5.20;;;3.70;;
15669;SDS011;18524;45.190;5.732;2022-07-29T05:05:20;5.17;;;4.60;;
15669;SDS011;18524;45.190;5.732;2022-07-29T05:10:10;5.33;;;4.30;;
15669;SDS011;18524;45.190;5.732;2022-07-29T05:15:01;5.93;;;4.00;;
15669;SDS011;18524;45.190;5.732;2022-07-29T05:19:52;4.60;;;4.10;;
15669;SDS011;18524;45.190;5.732;2022-07-29T05:24:42;3.37;;;3.07;;
15669;SDS011;18524;45.190;5.732;2022-07-29T05:29:33;3.60;;;3.13;;
15669;SDS011;18524;45.190;5.732;2022-07-29T05:34:23;3.23;;;2.83;;
15669;SDS011;18524;45.190;5.732;2022-07-29T05:39:14;3.03;;;2.80;;
15669;SDS011;18524;45.190;5.732;2022-07-29T05:44:05;4.93;;;3.03;;
15669;SDS011;18524;45.190;5.732;2022-07-29T05:48:55;5.00;;;3.27;;
15669;SDS011;18524;45.190;5.732;2022-07-29T05:53:46;3.50;;;3.03;;
15669;SDS011;18524;45.190;5.732;2022-07-29T05:58:36;4.80;;;3.07;;
15669;SDS011;18524;45.190;5.732;2022-07-29T06:03:27;2.83;;;2.60;;
15669;SDS011;18524;45.190;5.732;2022-07-29T06:08:18;4.53;;;3.20;;
15669;SDS011;18524;45.190;5.732;2022-07-29T06:13:08;4.23;;;2.77;;
15669;SDS011;18524;45.190;5.732;2022-07-29T06:17:59;4.93;;;3.30;;
15669;SDS011;18524;45.190;5.732;2022-07-29T06:22:49;3.90;;;3.50;;
15669;SDS011;18524;45.190;5.732;2022-07-29T06:27:40;7.80;;;3.50;;
15669;SDS011;18524;45.190;5.732;2022-07-29T06:32:30;6.70;;;3.97;;
15669;SDS011;18524;45.190;5.732;2022-07-29T06:37:21;7.80;;;3.70;;
15669;SDS011;18524;45.190;5.732;2022-07-29T06:42:12;6.03;;;3.50;;
15669;SDS011;18524;45.190;5.732;2022-07-29T06:47:02;5.47;;;4.57;;
15669;SDS011;18524;45.190;5.732;2022-07-29T06:51:53;5.13;;;3.57;;
15669;SDS011;18524;45.190;5.732;2022-07-29T06:56:44;5.13;;;4.00;;
15669;SDS011;18524;45.190;5.732;2022-07-29T07:01:35;5.13;;;4.13;;
15669;SDS011;18524;45.190;5.732;2022-07-29T07:06:27;6.97;;;3.97;;
15669;SDS011;18524;45.190;5.732;2022-07-29T07:11:17;6.13;;;4.30;;
15669;SDS011;18524;45.190;5.732;2022-07-29T07:16:08;7.17;;;4.37;;
15669;SDS011;18524;45.190;5.732;2022-07-29T07:20:58;5.20;;;4.23;;
15669;SDS011;18524;45.190;5.732;2022-07-29T07:25:48;5.63;;;4.40;;
15669;SDS011;18524;45.190;5.732;2022-07-29T07:30:39;7.67;;;3.90;;
15669;SDS011;18524;45.190;5.732;2022-07-29T07:35:30;6.53;;;4.30;;
15669;SDS011;18524;45.190;5.732;2022-07-29T07:40:20;4.73;;;4.17;;
15669;SDS011;18524;45.190;5.732;2022-07-29T07:45:11;5.00;;;4.10;;
15669;SDS011;18524;45.190;5.732;2022-07-29T07:50:02;6.40;;;4.33;;
15669;SDS011;18524;45.190;5.732;2022-07-29T07:54:53;8.37;;;3.97;;
15669;SDS011;18524;45.190;5.732;2022-07-29T07:59:43;6.30;;;4.00;;
15669;SDS011;18524;45.190;5.732;2022-07-29T08:04:34;8.47;;;4.97;;
15669;SDS011;18524;45.190;5.732;2022-07-29T08:09:25;7.47;;;4.60;;
15669;SDS011;18524;45.190;5.732;2022-07-29T08:14:17;8.33;;;4.27;;
15669;SDS011;18524;45.190;5.732;2022-07-29T08:19:08;6.97;;;4.33;;
15669;SDS011;18524;45.190;5.732;2022-07-29T08:23:59;9.20;;;4.93;;
15669;SDS011;18524;45.190;5.732;2022-07-29T08:29:10;7.70;;;4.37;;
15669;SDS011;18524;45.190;5.732;2022-07-29T08:34:01;5.03;;;4.27;;
15669;SDS011;18524;45.190;5.732;2022-07-29T08:38:53;4.73;;;3.93;;
15669;SDS011;18524;45.190;5.732;2022-07-29T08:43:43;5.57;;;4.00;;
15669;SDS011;18524;45.190;5.732;2022-07-29T08:48:34;6.93;;;4.43;;
15669;SDS011;18524;45.190;5.732;2022-07-29T08:53:27;12.00;;;4.93;;
15669;SDS011;18524;45.190;5.732;2022-07-29T08:58:18;9.13;;;5.00;;
15669;SDS011;18524;45.190;5.732;2022-07-29T09:03:10;13.50;;;7.10;;
15669;SDS011;18524;45.190;5.732;2022-07-29T09:08:04;11.77;;;6.70;;
15669;SDS011;18524;45.190;5.732;2022-07-29T09:12:55;8.33;;;5.53;;
15669;SDS011;18524;45.190;5.732;2022-07-29T09:17:47;9.70;;;5.93;;
15669;SDS011;18524;45.190;5.732;2022-07-29T09:22:39;10.93;;;6.97;;
15669;SDS011;18524;45.190;5.732;2022-07-29T09:27:29;13.23;;;7.43;;
15669;SDS011;18524;45.190;5.732;2022-07-29T09:32:20;7.67;;;6.73;;
15669;SDS011;18524;45.190;5.732;2022-07-29T09:37:10;7.80;;;5.83;;
15669;SDS011;18524;45.190;5.732;2022-07-29T09:42:03;9.70;;;6.27;;
15669;SDS011;18524;45.190;5.732;2022-07-29T09:47:02;10.33;;;7.43;;
15669;SDS011;18524;45.190;5.732;2022-07-29T09:52:00;7.20;;;5.87;;
15669;SDS011;18524;45.190;5.732;2022-07-29T09:56:57;7.03;;;6.33;;
15669;SDS011;18524;45.190;5.732;2022-07-29T10:01:48;9.07;;;6.00;;
15669;SDS011;18524;45.190;5.732;2022-07-29T10:06:59;8.37;;;5.40;;
15669;SDS011;18524;45.190;5.732;2022-07-29T10:12:03;6.27;;;5.67;;
15669;SDS011;18524;45.190;5.732;2022-07-29T10:16:55;8.80;;;6.90;;
15669;SDS011;18524;45.190;5.732;2022-07-29T10:21:45;9.43;;;7.37;;
15669;SDS011;18524;45.190;5.732;2022-07-29T10:26:36;6.30;;;5.70;;
15669;SDS011;18524;45.190;5.732;2022-07-29T10:31:34;7.73;;;6.17;;
15669;SDS011;18524;45.190;5.732;2022-07-29T10:42:35;8.00;;;7.20;;
15669;SDS011;18524;45.190;5.732;2022-07-29T10:47:30;8.83;;;7.20;;
15669;SDS011;18524;45.190;5.732;2022-07-29T10:52:20;8.03;;;6.87;;
15669;SDS011;18524;45.190;5.732;2022-07-29T11:02:57;8.00;;;6.37;;
15669;SDS011;18524;45.190;5.732;2022-07-29T11:07:35;7.77;;;7.07;;
15669;SDS011;18524;45.190;5.732;2022-07-29T11:17:26;6.63;;;6.03;;
15669;SDS011;18524;45.190;5.732;2022-07-29T11:22:33;6.37;;;5.77;;
15669;SDS011;18524;45.190;5.732;2022-07-29T11:27:26;6.90;;;6.20;;
15669;SDS011;18524;45.190;5.732;2022-07-29T11:32:39;6.90;;;5.87;;
15669;SDS011;18524;45.190;5.732;2022-07-29T11:37:30;6.87;;;6.17;;
15669;SDS011;18524;45.190;5.732;2022-07-29T11:47:14;7.60;;;6.90;;
15669;SDS011;18524;45.190;5.732;2022-07-29T11:52:10;7.67;;;6.97;;
15669;SDS011;18524;45.190;5.732;2022-07-29T11:57:00;7.83;;;7.03;;
15669;SDS011;18524;45.190;5.732;2022-07-29T12:01:52;7.60;;;6.33;;
15669;SDS011;18524;45.190;5.732;2022-07-29T12:06:52;6.40;;;5.03;;
15669;SDS011;18524;45.190;5.732;2022-07-29T12:11:43;5.50;;;4.67;;
15669;SDS011;18524;45.190;5.732;2022-07-29T12:16:35;6.63;;;5.60;;
15669;SDS011;18524;45.190;5.732;2022-07-29T12:21:27;6.67;;;5.97;;
15669;SDS011;18524;45.190;5.732;2022-07-29T12:26:17;7.07;;;6.40;;
15669;SDS011;18524;45.190;5.732;2022-07-29T12:31:14;6.97;;;6.27;;
15669;SDS011;18524;45.190;5.732;2022-07-29T12:36:05;7.07;;;5.80;;
15669;SDS011;18524;45.190;5.732;2022-07-29T12:40:56;5.93;;;5.43;;
15669;SDS011;18524;45.190;5.732;2022-07-29T12:45:51;8.37;;;7.07;;
15669;SDS011;18524;45.190;5.732;2022-07-29T12:50:55;7.63;;;7.03;;
15669;SDS011;18524;45.190;5.732;2022-07-29T12:55:49;7.23;;;6.60;;
15669;SDS011;18524;45.190;5.732;2022-07-29T13:00:41;7.23;;;6.63;;
15669;SDS011;18524;45.190;5.732;2022-07-29T13:05:40;5.50;;;5.07;;
15669;SDS011;18524;45.190;5.732;2022-07-29T13:10:35;6.90;;;6.30;;
15669;SDS011;18524;45.190;5.732;2022-07-29T13:15:26;7.60;;;6.80;;
15669;SDS011;18524;45.190;5.732;2022-07-29T13:20:17;5.67;;;5.13;;
15669;SDS011;18524;45.190;5.732;2022-07-29T13:25:08;6.27;;;5.67;;
15669;SDS011;18524;45.190;5.732;2022-07-29T13:30:00;6.27;;;5.77;;
15669;SDS011;18524;45.190;5.732;2022-07-29T13:34:52;5.87;;;5.33;;
15669;SDS011;18524;45.190;5.732;2022-07-29T13:39:43;6.30;;;5.70;;
15669;SDS011;18524;45.190;5.732;2022-07-29T13:44:33;6.20;;;5.60;;
15669;SDS011;18524;45.190;5.732;2022-07-29T13:49:24;6.30;;;5.80;;
15669;SDS011;18524;45.190;5.732;2022-07-29T13:54:14;6.10;;;5.60;;
15669;SDS011;18524;45.190;5.732;2022-07-29T13:59:05;6.43;;;5.93;;
15669;SDS011;18524;45.190;5.732;2022-07-29T14:03:55;6.90;;;5.97;;
15669;SDS011;18524;45.190;5.732;2022-07-29T14:08:46;6.67;;;6.07;;
15669;SDS011;18524;45.190;5.732;2022-07-29T14:13:36;6.00;;;5.50;;
15669;SDS011;18524;45.190;5.732;2022-07-29T14:18:26;5.90;;;5.40;;
15669;SDS011;18524;45.190;5.732;2022-07-29T14:23:17;6.27;;;5.80;;
15669;SDS011;18524;45.190;5.732;2022-07-29T14:28:08;5.77;;;5.23;;
15669;SDS011;18524;45.190;5.732;2022-07-29T14:32:58;5.80;;;5.30;;
15669;SDS011;18524;45.190;5.732;2022-07-29T14:37:48;5.97;;;5.47;;
15669;SDS011;18524;45.190;5.732;2022-07-29T14:42:39;6.00;;;5.53;;
15669;SDS011;18524;45.190;5.732;2022-07-29T14:47:29;5.87;;;5.30;;
15669;SDS011;18524;45.190;5.732;2022-07-29T14:52:20;5.20;;;4.90;;
15669;SDS011;18524;45.190;5.732;2022-07-29T14:57:10;5.17;;;4.67;;
15669;SDS011;18524;45.190;5.732;2022-07-29T15:02:01;6.90;;;5.40;;
15669;SDS011;18524;45.190;5.732;2022-07-29T15:06:51;5.57;;;5.10;;
15669;SDS011;18524;45.190;5.732;2022-07-29T15:11:41;4.10;;;3.80;;
15669;SDS011;18524;45.190;5.732;2022-07-29T15:16:32;4.60;;;4.20;;
15669;SDS011;18524;45.190;5.732;2022-07-29T15:21:25;4.53;;;4.23;;
15669;SDS011;18524;45.190;5.732;2022-07-29T15:26:15;4.53;;;4.13;;
15669;SDS011;18524;45.190;5.732;2022-07-29T15:31:06;4.80;;;4.40;;
15669;SDS011;18524;45.190;5.732;2022-07-29T15:35:56;4.07;;;3.77;;
15669;SDS011;18524;45.190;5.732;2022-07-29T15:40:47;3.83;;;3.53;;
15669;SDS011;18524;45.190;5.732;2022-07-29T15:45:38;4.27;;;3.90;;
15669;SDS011;18524;45.190;5.732;2022-07-29T15:50:30;4.60;;;4.20;;
15669;SDS011;18524;45.190;5.732;2022-07-29T15:55:20;4.57;;;4.17;;
15669;SDS011;18524;45.190;5.732;2022-07-29T16:00:10;3.67;;;3.40;;
15669;SDS011;18524;45.190;5.732;2022-07-29T16:05:02;3.17;;;2.97;;
15669;SDS011;18524;45.190;5.732;2022-07-29T16:09:53;3.83;;;3.53;;
15669;SDS011;18524;45.190;5.732;2022-07-29T16:14:43;3.20;;;3.00;;
15669;SDS011;18524;45.190;5.732;2022-07-29T16:19:33;3.07;;;2.77;;
15669;SDS011;18524;45.190;5.732;2022-07-29T16:24:24;3.27;;;2.97;;
15669;SDS011;18524;45.190;5.732;2022-07-29T16:29:18;3.30;;;3.10;;
15669;SDS011;18524;45.190;5.732;2022-07-29T16:34:08;3.07;;;2.80;;
15669;SDS011;18524;45.190;5.732;2022-07-29T16:38:59;4.93;;;2.90;;
15669;SDS011;18524;45.190;5.732;2022-07-29T16:43:49;2.97;;;2.77;;
15669;SDS011;18524;45.190;5.732;2022-07-29T16:48:40;2.83;;;2.63;;
15669;SDS011;18524;45.190;5.732;2022-07-29T16:53:31;2.63;;;2.43;;
15669;SDS011;18524;45.190;5.732;2022-07-29T16:58:21;2.10;;;2.00;;
15669;SDS011;18524;45.190;5.732;2022-07-29T17:03:11;2.50;;;2.30;;
15669;SDS011;18524;45.190;5.732;2022-07-29T17:08:02;2.30;;;2.10;;
15669;SDS011;18524;45.190;5.732;2022-07-29T17:12:52;2.17;;;2.03;;
15669;SDS011;18524;45.190;5.732;2022-07-29T17:17:43;2.97;;;2.77;;
15669;SDS011;18524;45.190;5.732;2022-07-29T17:22:35;2.53;;;2.40;;
15669;SDS011;18524;45.190;5.732;2022-07-29T17:27:25;3.07;;;2.67;;
15669;SDS011;18524;45.190;5.732;2022-07-29T17:32:16;2.17;;;2.07;;
15669;SDS011;18524;45.190;5.732;2022-07-29T17:37:07;2.03;;;1.93;;
15669;SDS011;18524;45.190;5.732;2022-07-29T17:41:58;3.07;;;1.93;;
15669;SDS011;18524;45.190;5.732;2022-07-29T17:46:48;2.13;;;2.03;;
15669;SDS011;18524;45.190;5.732;2022-07-29T17:51:39;1.90;;;1.80;;
15669;SDS011;18524;45.190;5.732;2022-07-29T17:56:29;1.93;;;1.83;;
15669;SDS011;18524;45.190;5.732;2022-07-29T18:01:20;1.97;;;1.87;;
15669;SDS011;18524;45.190;5.732;2022-07-29T18:06:10;1.50;;;1.40;;
15669;SDS011;18524;45.190;5.732;2022-07-29T18:11:01;1.80;;;1.70;;
15669;SDS011;18524;45.190;5.732;2022-07-29T18:15:51;2.10;;;2.00;;
15669;SDS011;18524;45.190;5.732;2022-07-29T18:20:42;1.80;;;1.70;;
15669;SDS011;18524;45.190;5.732;2022-07-29T18:25:33;1.83;;;1.60;;
15669;SDS011;18524;45.190;5.732;2022-07-29T18:30:23;5.17;;;4.30;;
15669;SDS011;18524;45.190;5.732;2022-07-29T18:35:14;3.83;;;3.40;;
15669;SDS011;18524;45.190;5.732;2022-07-29T18:40:06;5.50;;;5.00;;
15669;SDS011;18524;45.190;5.732;2022-07-29T18:44:57;2.47;;;2.30;;
15669;SDS011;18524;45.190;5.732;2022-07-29T18:49:47;2.67;;;2.47;;
15669;SDS011;18524;45.190;5.732;2022-07-29T18:54:38;2.70;;;2.50;;
15669;SDS011;18524;45.190;5.732;2022-07-29T18:59:28;8.97;;;8.20;;
15669;SDS011;18524;45.190;5.732;2022-07-29T19:04:19;3.77;;;3.00;;
15669;SDS011;18524;45.190;5.732;2022-07-29T19:09:09;3.30;;;2.60;;
15669;SDS011;18524;45.190;5.732;2022-07-29T19:14:00;3.90;;;3.57;;
15669;SDS011;18524;45.190;5.732;2022-07-29T19:18:50;4.20;;;3.80;;
15669;SDS011;18524;45.190;5.732;2022-07-29T19:23:41;7.00;;;6.37;;
15669;SDS011;18524;45.190;5.732;2022-07-29T19:28:31;4.20;;;3.90;;
15669;SDS011;18524;45.190;5.732;2022-07-29T19:33:22;3.07;;;2.80;;
15669;SDS011;18524;45.190;5.732;2022-07-29T19:38:12;3.00;;;2.80;;
15669;SDS011;18524;45.190;5.732;2022-07-29T19:43:03;4.10;;;3.80;;
15669;SDS011;18524;45.190;5.732;2022-07-29T19:47:54;3.73;;;3.43;;
15669;SDS011;18524;45.190;5.732;2022-07-29T19:52:45;3.40;;;3.10;;
15669;SDS011;18524;45.190;5.732;2022-07-29T19:57:36;3.17;;;2.97;;
15669;SDS011;18524;45.190;5.732;2022-07-29T20:02:26;3.70;;;2.90;;
15669;SDS011;18524;45.190;5.732;2022-07-29T20:07:16;3.93;;;3.63;;
15669;SDS011;18524;45.190;5.732;2022-07-29T20:12:07;3.90;;;3.70;;
15669;SDS011;18524;45.190;5.732;2022-07-29T20:16:58;3.30;;;3.00;;
15669;SDS011;18524;45.190;5.732;2022-07-29T20:21:49;2.90;;;2.70;;
15669;SDS011;18524;45.190;5.732;2022-07-29T20:26:40;6.00;;;5.40;;
15669;SDS011;18524;45.190;5.732;2022-07-29T20:31:30;3.83;;;3.53;;
15669;SDS011;18524;45.190;5.732;2022-07-29T20:36:21;3.43;;;3.13;;
15669;SDS011;18524;45.190;5.732;2022-07-29T20:41:12;3.40;;;3.10;;
15669;SDS011;18524;45.190;5.732;2022-07-29T20:46:03;3.30;;;3.10;;
15669;SDS011;18524;45.190;5.732;2022-07-29T20:50:53;4.17;;;3.40;;
15669;SDS011;18524;45.190;5.732;2022-07-29T20:55:44;3.00;;;2.80;;
15669;SDS011;18524;45.190;5.732;2022-07-29T21:00:34;3.00;;;2.80;;
15669;SDS011;18524;45.190;5.732;2022-07-29T21:05:25;3.20;;;3.00;;
15669;SDS011;18524;45.190;5.732;2022-07-29T21:10:15;2.90;;;2.70;;
15669;SDS011;18524;45.190;5.732;2022-07-29T21:15:07;2.87;;;2.67;;
15669;SDS011;18524;45.190;5.732;2022-07-29T21:20:02;2.77;;;2.57;;
15669;SDS011;18524;45.190;5.732;2022-07-29T21:24:54;2.90;;;2.70;;
15669;SDS011;18524;45.190;5.732;2022-07-29T21:29:44;2.77;;;2.57;;
15669;SDS011;18524;45.190;5.732;2022-07-29T21:34:34;2.60;;;2.40;;
15669;SDS011;18524;45.190;5.732;2022-07-29T21:39:25;2.63;;;2.43;;
15669;SDS011;18524;45.190;5.732;2022-07-29T21:44:16;2.80;;;2.37;;
15669;SDS011;18524;45.190;5.732;2022-07-29T21:49:08;2.30;;;2.10;;
15669;SDS011;18524;45.190;5.732;2022-07-29T21:53:58;2.60;;;2.40;;
15669;SDS011;18524;45.190;5.732;2022-07-29T21:58:49;3.00;;;2.80;;
15669;SDS011;18524;45.190;5.732;2022-07-29T22:03:39;2.97;;;2.77;;
15669;SDS011;18524;45.190;5.732;2022-07-29T22:08:29;2.73;;;2.53;;
15669;SDS011;18524;45.190;5.732;2022-07-29T22:13:20;2.30;;;2.10;;
15669;SDS011;18524;45.190;5.732;2022-07-29T22:18:10;2.87;;;2.67;;
15669;SDS011;18524;45.190;5.732;2022-07-29T22:23:00;2.93;;;2.63;;
15669;SDS011;18524;45.190;5.732;2022-07-29T22:27:51;2.70;;;2.43;;
15669;SDS011;18524;45.190;5.732;2022-07-29T22:32:41;2.50;;;2.30;;
15669;SDS011;18524;45.190;5.732;2022-07-29T22:37:32;2.60;;;2.50;;
15669;SDS011;18524;45.190;5.732;2022-07-29T22:42:23;3.00;;;2.80;;
15669;SDS011;18524;45.190;5.732;2022-07-29T22:47:13;3.10;;;2.83;;
15669;SDS011;18524;45.190;5.732;2022-07-29T22:52:03;3.00;;;2.80;;
15669;SDS011;18524;45.190;5.732;2022-07-29T22:56:54;2.70;;;2.50;;
15669;SDS011;18524;45.190;5.732;2022-07-29T23:01:44;2.97;;;2.70;;
15669;SDS011;18524;45.190;5.732;2022-07-29T23:06:35;2.93;;;2.70;;
15669;SDS011;18524;45.190;5.732;2022-07-29T23:11:25;3.00;;;2.80;;
15669;SDS011;18524;45.190;5.732;2022-07-29T23:16:15;3.37;;;3.07;;
15669;SDS011;18524;45.190;5.732;2022-07-29T23:21:06;2.67;;;2.53;;
15669;SDS011;18524;45.190;5.732;2022-07-29T23:25:56;3.80;;;2.57;;
15669;SDS011;18524;45.190;5.732;2022-07-29T23:30:47;3.30;;;2.40;;
15669;SDS011;18524;45.190;5.732;2022-07-29T23:35:37;2.53;;;2.43;;
15669;SDS011;18524;45.190;5.732;2022-07-29T23:40:28;3.20;;;3.00;;
15669;SDS011;18524;45.190;5.732;2022-07-29T23:45:18;3.17;;;2.87;;
15669;SDS011;18524;45.190;5.732;2022-07-29T23:50:09;3.13;;;2.90;;
15669;SDS011;18524;45.190;5.732;2022-07-29T23:55:01;2.87;;;2.67;;
15669;SDS011;18524;45.190;5.732;2022-07-29T23:59:51;2.60;;;2.40;;
